Terminal Aerodrome Forecast
Issued by NWS Blacksburg, VA

Current Version | Previous Version | Graphics & Text | Print | Product List | Glossary On
Versions: 1 2 3 4 5 6 7 8 9 10 11 12 13 14 15 16 17 18 19 20 21 22 23 24 25 26 27 28 29 30 31 32 33 34 35 36 37 38 39 40 41 42 43 44 45 46
000
FTUS41 KRNK 170357 AAA
TAFBLF
TAF AMD
KBLF 170357Z 1704/1724 28005KT 5SM -SN BR SCT008 OVC020
      TEMPO 1704/1707 2SM -SN BR BKN008 OVC015
     FM170700 31006KT 5SM -SN BKN007 OVC015
     FM171200 30010KT P6SM -SHSN BKN020=

USA.gov is the U.S. government's official web portal to all federal, state and local government web resources and services.